Larrys River, Canada
Current Conditions -  °F | °C
As of 10:57 AM on Thursday 30 Oct 2014 (Local Time) from CYPD Reporting Station
Overcast Overcast  
Wind Chill: 52°   Ceiling: 2000
Heat Index: 52°   Visibility: 9mi
Dew Point: 48°   Wind: 8mph
Humidity: 88%   Direction: 300°WNW
Pressure: 29.76"   Gusts: NA
Location:  45.22°N, 61.37°W
Report Text: CYPD 301357Z AUTO 30007KT 9SM OVC020 11/09 A2976 RMK SLP078
Loading
Personal Weather Stations






























Interactive Weather Map
Tropical Storm Tracking
New forecast layout! Learn more

10-Day Weather Forecast

Advertisements
Track Severe Weather on mobile